Time;durP1;ratioP1;P1;durP2;ratioP2;P2;SDS_P1;SDS_P2;PMS_P1;PMS_P2;Temp;Humidity;BMP_temperature;BMP_pressure;BME280_temperature;BME280_humidity;BME280_pressure;Samples;Min_cycle;Max_cycle;Signal;HPM_P1;HPM_P2
2021/05/24 00:01:51;;;;;;;4.03;1.30;;;;;;;;;;5091690;28;20190;-80
2021/05/24 00:04:17;;;;;;;2.63;1.10;;;;;;;;;;5092142;28;20201;-81
2021/05/24 00:06:44;;;;;;;2.73;1.17;;;;;;;;;;5091913;28;20186;-80
2021/05/24 00:09:12;;;;;;;1.27;1.07;;;;;;;;;;5091669;28;20244;-80
2021/05/24 00:11:40;;;;;;;3.20;1.50;;;;;;;;;;5091685;28;20240;-80
2021/05/24 00:14:08;;;;;;;3.03;1.17;;;;;;;;;;5091771;28;20579;-80
2021/05/24 00:16:39;;;;;;;3.97;1.40;;;;;;;;;;5091811;28;20198;-80
2021/05/24 00:19:05;;;;;;;3.33;1.17;;;;;;;;;;5092031;28;20224;-80
2021/05/24 00:21:35;;;;;;;1.83;1.20;;;;;;;;;;5092030;28;20383;-80
2021/05/24 00:24:02;;;;;;;2.33;1.20;;;;;;;;;;5091217;28;20309;-79
2021/05/24 00:26:28;;;;;;;3.13;1.10;;;;;;;;;;5091335;28;20701;-80
2021/05/24 00:28:58;;;;;;;3.83;1.10;;;;;;;;;;5092172;28;20207;-80
2021/05/24 00:31:25;;;;;;;2.60;1.00;;;;;;;;;;5095959;28;20200;-80
2021/05/24 00:33:52;;;;;;;2.03;1.20;;;;;;;;;;5096216;28;20746;-80
2021/05/24 00:36:20;;;;;;;1.70;1.27;;;;;;;;;;5095806;28;20220;-80
2021/05/24 00:38:47;;;;;;;2.30;1.00;;;;;;;;;;5095271;28;20700;-80
2021/05/24 00:41:19;;;;;;;3.00;1.30;;;;;;;;;;5095899;28;20206;-80
2021/05/24 00:43:47;;;;;;;2.70;1.13;;;;;;;;;;5095502;28;20202;-80
2021/05/24 00:46:15;;;;;;;2.23;1.40;;;;;;;;;;5095660;28;20283;-81
2021/05/24 00:48:52;;;;;;;2.37;1.57;;;;;;;;;;5095811;28;20612;-80
2021/05/24 00:51:19;;;;;;;3.23;1.43;;;;;;;;;;5094887;28;20691;-81
2021/05/24 00:53:46;;;;;;;2.57;1.30;;;;;;;;;;5094837;28;20201;-80
2021/05/24 00:56:18;;;;;;;3.00;1.20;;;;;;;;;;5095623;28;20594;-80
2021/05/24 00:58:45;;;;;;;2.33;1.50;;;;;;;;;;5095286;28;20202;-81
2021/05/24 01:01:12;;;;;;;2.53;1.40;;;;;;;;;;5095184;28;20197;-81
2021/05/24 01:03:47;;;;;;;2.43;1.20;;;;;;;;;;5095327;28;20209;-81
2021/05/24 01:06:14;;;;;;;2.50;1.40;;;;;;;;;;5094928;28;20222;-81
2021/05/24 01:08:40;;;;;;;2.67;1.40;;;;;;;;;;5094812;28;20698;-81
2021/05/24 01:11:07;;;;;;;2.73;1.50;;;;;;;;;;5095228;28;20230;-81
2021/05/24 01:13:35;;;;;;;2.37;1.20;;;;;;;;;;5095037;28;20241;-81
2021/05/24 01:16:09;;;;;;;3.40;1.50;;;;;;;;;;5092206;28;20688;-81
2021/05/24 01:18:36;;;;;;;3.07;1.40;;;;;;;;;;5095862;28;20208;-82
2021/05/24 01:21:03;;;;;;;4.03;1.43;;;;;;;;;;5094241;28;20291;-81
2021/05/24 01:23:37;;;;;;;3.83;1.67;;;;;;;;;;5095270;28;20217;-81
2021/05/24 01:26:04;;;;;;;4.07;1.63;;;;;;;;;;5094547;28;20229;-82
2021/05/24 01:28:31;;;;;;;2.40;1.40;;;;;;;;;;5094822;28;20216;-82
2021/05/24 01:30:57;;;;;;;2.70;1.70;;;;;;;;;;5094883;28;20246;-82
2021/05/24 01:33:24;;;;;;;3.13;1.60;;;;;;;;;;5094581;28;20190;-82
2021/05/24 01:35:53;;;;;;;3.57;1.50;;;;;;;;;;5094480;28;20271;-82
2021/05/24 01:38:20;;;;;;;2.33;1.57;;;;;;;;;;5094555;28;20212;-82
2021/05/24 01:40:48;;;;;;;3.77;1.50;;;;;;;;;;5094637;28;20234;-82
2021/05/24 01:43:15;;;;;;;2.23;1.67;;;;;;;;;;5093706;28;20286;-82
2021/05/24 01:45:42;;;;;;;3.10;1.60;;;;;;;;;;5093762;28;20228;-82
2021/05/24 01:48:09;;;;;;;2.40;1.57;;;;;;;;;;5094439;28;20243;-82
2021/05/24 01:50:36;;;;;;;2.57;1.67;;;;;;;;;;5093874;28;20198;-82
2021/05/24 01:53:03;;;;;;;4.30;1.80;;;;;;;;;;5094025;28;20689;-82
2021/05/24 01:55:30;;;;;;;2.90;1.57;;;;;;;;;;5094332;28;20220;-82
2021/05/24 01:57:58;;;;;;;3.13;1.80;;;;;;;;;;5094325;28;20205;-82
2021/05/24 02:00:33;;;;;;;4.33;2.17;;;;;;;;;;5093591;28;20233;-82
2021/05/24 02:03:01;;;;;;;4.70;1.70;;;;;;;;;;5094331;28;20668;-82
2021/05/24 02:05:28;;;;;;;2.63;1.90;;;;;;;;;;5093931;28;20220;-82
2021/05/24 02:08:01;;;;;;;1.97;1.43;;;;;;;;;;5094372;28;20285;-82
2021/05/24 02:10:30;;;;;;;4.63;1.80;;;;;;;;;;5094028;28;20205;-82
2021/05/24 02:12:58;;;;;;;2.97;1.63;;;;;;;;;;5093694;28;20559;-82
2021/05/24 02:15:34;;;;;;;2.97;1.73;;;;;;;;;;5074389;28;20201;-81
2021/05/24 02:18:01;;;;;;;5.97;1.90;;;;;;;;;;5092921;28;20201;-82
2021/05/24 02:20:28;;;;;;;4.07;1.90;;;;;;;;;;5091535;28;20209;-82
2021/05/24 02:23:12;;;;;;;1.97;1.63;;;;;;;;;;5093686;28;20669;-81
2021/05/24 02:25:53;;;;;;;4.27;1.80;;;;;;;;;;5093511;28;20898;-82
2021/05/24 02:28:23;;;;;;;3.70;1.73;;;;;;;;;;5092993;28;20218;-82
2021/05/24 02:30:50;;;;;;;4.87;2.03;;;;;;;;;;5093461;28;20335;-82
2021/05/24 02:33:18;;;;;;;5.03;1.93;;;;;;;;;;5093729;28;20189;-82
2021/05/24 02:35:45;;;;;;;4.67;1.90;;;;;;;;;;5093698;28;20290;-82
2021/05/24 02:38:12;;;;;;;3.90;2.00;;;;;;;;;;5093638;28;20196;-82
2021/05/24 02:40:41;;;;;;;3.63;1.80;;;;;;;;;;5092971;28;20194;-82
2021/05/24 02:43:08;;;;;;;4.77;2.00;;;;;;;;;;5093117;28;20204;-82
2021/05/24 02:45:38;;;;;;;4.03;1.80;;;;;;;;;;5093141;28;20254;-82
2021/05/24 02:48:06;;;;;;;8.33;2.50;;;;;;;;;;5092859;28;20209;-82
2021/05/24 02:50:34;;;;;;;5.87;2.07;;;;;;;;;;5092948;28;20216;-82
2021/05/24 02:53:14;;;;;;;4.27;1.80;;;;;;;;;;5092696;28;20611;-82
2021/05/24 02:55:48;;;;;;;5.60;1.90;;;;;;;;;;5092767;28;20200;-82
2021/05/24 02:58:15;;;;;;;5.37;1.90;;;;;;;;;;5093158;28;20229;-81
2021/05/24 03:00:43;;;;;;;8.77;2.07;;;;;;;;;;5092321;28;20283;-82
2021/05/24 03:03:13;;;;;;;2.80;1.80;;;;;;;;;;5093004;28;20202;-82
2021/05/24 03:05:40;;;;;;;5.53;2.00;;;;;;;;;;5092148;28;20650;-82
2021/05/24 03:08:07;;;;;;;5.80;2.23;;;;;;;;;;5092882;28;20199;-81
2021/05/24 03:10:33;;;;;;;4.50;1.90;;;;;;;;;;5093002;28;20208;-81
2021/05/24 03:13:00;;;;;;;4.13;2.20;;;;;;;;;;5092356;28;20201;-82
2021/05/24 03:15:37;;;;;;;5.07;2.10;;;;;;;;;;5092688;28;20667;-81
2021/05/24 03:18:05;;;;;;;9.50;2.53;;;;;;;;;;5092630;28;20212;-81
2021/05/24 03:20:31;;;;;;;7.13;2.17;;;;;;;;;;5094866;28;20248;-82
2021/05/24 03:23:11;;;;;;;;;;;;;;;;;;;;;
2021/05/24 03:25:52;;;;;;;5.53;2.00;;;;;;;;;;5090580;28;20233;-81
2021/05/24 03:28:19;;;;;;;5.03;2.33;;;;;;;;;;5092167;28;20250;-82
2021/05/24 03:30:46;;;;;;;4.87;2.13;;;;;;;;;;5091932;28;20198;-82
2021/05/24 03:33:19;;;;;;;8.27;2.63;;;;;;;;;;5092353;28;20209;-81
2021/05/24 03:35:46;;;;;;;7.73;2.43;;;;;;;;;;5091806;28;20203;-81
2021/05/24 03:38:12;;;;;;;9.40;2.50;;;9.60;99.90;;;;;;5092570;28;20201;-82
2021/05/24 03:40:39;;;;;;;9.30;2.80;;;;;;;;;;5092423;28;20205;-81
2021/05/24 03:43:06;;;;;;;7.43;2.73;;;;;;;;;;5092024;28;20202;-81
2021/05/24 03:45:37;;;;;;;8.47;2.60;;;9.70;99.90;;;;;;5092578;28;20261;-81
2021/05/24 03:48:05;;;;;;;7.43;2.50;;;9.70;99.90;;;;;;5091856;28;20211;-81
2021/05/24 03:50:32;;;;;;;9.47;2.40;;;9.60;99.90;;;;;;5092198;28;20297;-82
2021/05/24 03:53:13;;;;;;;6.47;2.53;;;9.60;99.90;;;;;;5092040;28;20192;-81
2021/05/24 03:55:41;;;;;;;8.23;2.60;;;9.60;99.90;;;;;;5091406;28;20718;-81
2021/05/24 03:58:07;;;;;;;8.03;2.60;;;9.50;99.90;;;;;;5092060;28;20192;-81
2021/05/24 04:00:40;;;;;;;6.43;2.87;;;9.60;99.90;;;;;;5091783;28;20626;-81
2021/05/24 04:03:08;;;;;;;8.50;2.87;;;9.60;99.90;;;;;;5092085;28;20277;-81
2021/05/24 04:05:37;;;;;;;8.70;2.67;;;9.60;99.90;;;;;;5092147;28;20594;-81
2021/05/24 04:08:12;;;;;;;11.47;2.80;;;;;;;;;;5091579;28;20194;-81
2021/05/24 04:10:45;;;;;;;7.50;3.37;;;9.70;99.90;;;;;;5091876;28;20627;-81
2021/05/24 04:13:11;;;;;;;7.67;3.13;;;9.60;99.90;;;;;;5091469;28;20204;-81
2021/05/24 04:15:44;;;;;;;9.80;2.83;;;;;;;;;;5092031;28;20233;-81
2021/05/24 04:18:15;;;;;;;16.60;4.03;;;;;;;;;;5091665;28;20196;-81
2021/05/24 04:20:44;;;;;;;9.83;3.30;;;;;;;;;;5091549;28;20208;-81
2021/05/24 04:23:12;;;;;;;7.77;2.80;;;;;;;;;;5091536;28;20202;-81
2021/05/24 04:25:43;;;;;;;10.43;2.90;;;;;;;;;;5091433;28;20234;-81
2021/05/24 04:28:09;;;;;;;13.23;3.60;;;9.40;99.90;;;;;;5091696;28;20218;-80
2021/05/24 04:30:40;;;;;;;9.90;3.13;;;;;;;;;;5091487;28;20672;-81
2021/05/24 04:33:07;;;;;;;10.77;2.90;;;;;;;;;;5091922;28;20204;-81
2021/05/24 04:35:34;;;;;;;8.20;3.07;;;;;;;;;;5092205;28;20625;-81
2021/05/24 04:38:02;;;;;;;6.93;3.00;;;;;;;;;;5091687;28;20288;-81
2021/05/24 04:40:29;;;;;;;10.60;2.93;;;;;;;;;;5091298;28;20216;-81
2021/05/24 04:43:10;;;;;;;9.77;2.80;;;;;;;;;;5091905;28;20288;-81
2021/05/24 04:45:43;;;;;;;10.53;3.40;;;;;;;;;;5091261;28;20229;-81
2021/05/24 04:48:10;;;;;;;10.53;2.80;;;;;;;;;;5091313;28;20673;-82
2021/05/24 04:50:38;;;;;;;11.53;2.83;;;;;;;;;;5091846;28;20201;-81
2021/05/24 04:53:20;;;;;;;9.53;3.17;;;;;;;;;;5091870;28;20233;-81
2021/05/24 04:55:49;;;;;;;6.93;2.73;;;;;;;;;;5090874;28;20201;-82
2021/05/24 04:58:16;;;;;;;9.80;2.77;;;;;;;;;;5091820;28;20209;-81
2021/05/24 05:00:44;;;;;;;8.87;3.07;;;;;;;;;;5091306;28;20247;-81
2021/05/24 05:03:11;;;;;;;11.50;2.80;;;;;;;;;;5091750;28;20222;-81
2021/05/24 05:05:38;;;;;;;6.63;2.53;;;;;;;;;;5091161;28;20233;-81
2021/05/24 05:08:06;;;;;;;8.30;2.77;;;;;;;;;;5091426;28;20200;-81
2021/05/24 05:10:33;;;;;;;8.87;2.30;;;;;;;;;;5091428;28;20205;-81
2021/05/24 05:13:02;;;;;;;9.17;2.30;;;;;;;;;;5090699;28;20636;-81
2021/05/24 05:15:32;;;;;;;9.77;3.00;;;;;;;;;;5092588;28;20206;-81
2021/05/24 05:17:59;;;;;;;7.47;2.83;;;;;;;;;;5095022;28;20197;-81
2021/05/24 05:20:32;;;;;;;12.10;2.57;;;;;;;;;;5094785;28;20259;-81
2021/05/24 05:23:00;;;;;;;9.13;2.40;;;;;;;;;;5095361;28;20290;-81
2021/05/24 05:25:27;;;;;;;7.23;2.57;;;;;;;;;;5094685;28;20222;-81
2021/05/24 05:27:54;;;;;;;10.27;2.90;;;;;;;;;;5094625;28;20713;-81
2021/05/24 05:30:22;;;;;;;10.00;2.50;;;;;;;;;;5094822;28;20195;-81
2021/05/24 05:32:50;;;;;;;9.47;2.50;;;;;;;;;;5094091;28;20240;-81
2021/05/24 05:35:19;;;;;;;6.90;2.07;;;;;;;;;;5094611;28;20237;-81
2021/05/24 05:37:48;;;;;;;12.27;2.60;;;;;;;;;;5094272;28;20191;-81
2021/05/24 05:40:18;;;;;;;8.47;2.63;;;;;;;;;;5094586;28;20215;-81
2021/05/24 05:42:46;;;;;;;8.60;3.20;;;;;;;;;;5094500;28;20206;-81
2021/05/24 05:45:13;;;;;;;8.23;2.33;;;;;;;;;;5094334;28;20206;-81
2021/05/24 05:47:55;;;;;;;9.20;2.03;;;;;;;;;;5093931;28;20589;-80
2021/05/24 05:50:29;;;;;;;8.27;2.30;;;;;;;;;;5093965;28;20218;-81
2021/05/24 05:52:58;;;;;;;10.07;3.07;;;;;;;;;;5094389;28;20679;-81
2021/05/24 05:55:26;;;;;;;8.97;2.53;;;;;;;;;;5094240;28;20220;-81
2021/05/24 05:57:59;;;;;;;9.57;3.10;;;;;;;;;;5094072;28;20289;-81
2021/05/24 06:00:27;;;;;;;8.03;2.63;;;;;;;;;;5094083;28;20205;-81
2021/05/24 06:02:54;;;;;;;7.17;2.13;;;;;;;;;;5093918;28;20242;-81
2021/05/24 06:05:22;;;;;;;6.83;2.30;;;;;;;;;;5093827;28;20717;-82
2021/05/24 06:07:49;;;;;;;7.83;2.03;;;;;;;;;;5094206;28;20289;-81
2021/05/24 06:10:17;;;;;;;7.03;1.87;;;;;;;;;;5094691;28;20552;-82
2021/05/24 06:12:45;;;;;;;7.83;2.10;;;;;;;;;;5093344;28;20194;-82
2021/05/24 06:15:15;;;;;;;5.67;2.03;;;;;;;;;;5094584;28;20230;-82
2021/05/24 06:17:42;;;;;;;7.60;2.10;;;;;;;;;;5094317;28;20588;-81
2021/05/24 06:20:09;;;;;;;8.63;2.40;;;;;;;;;;5094107;28;20202;-82
2021/05/24 06:22:36;;;;;;;5.80;2.20;;;;;;;;;;5095103;28;20207;-82
2021/05/24 06:25:04;;;;;;;5.23;1.87;;;;;;;;;;5094567;28;20230;-82
2021/05/24 06:27:31;;;;;;;6.47;2.07;;;;;;;;;;5092537;28;20222;-81
2021/05/24 06:29:58;;;;;;;9.03;2.10;;;;;;;;;;5094156;28;20222;-83
2021/05/24 06:32:24;;;;;;;6.22;1.77;;;;;;;;;;5094665;28;20615;-82
2021/05/24 06:34:51;;;;;;;7.07;2.00;;;;;;;;;;5094549;28;20685;-82
2021/05/24 06:37:18;;;;;;;7.25;2.40;;;;;;;;;;5094417;28;20234;-82
2021/05/24 06:39:45;;;;;;;7.53;2.00;;;;;;;;;;5093747;28;20202;-83
2021/05/24 06:42:13;;;;;;;7.55;1.83;;;;;;;;;;5093666;28;20198;-83
2021/05/24 06:44:39;;;;;;;8.30;2.17;;;;;;;;;;5095347;28;20615;-82
2021/05/24 06:47:06;;;;;;;8.55;2.10;;;;;;;;;;5092964;28;20218;-82
2021/05/24 06:49:35;;;;;;;11.18;2.40;;;;;;;;;;5093111;28;20194;-82
2021/05/24 06:52:05;;;;;;;9.80;2.60;;;;;;;;;;5092719;28;20270;-81
2021/05/24 06:54:32;;;;;;;8.63;2.00;;;;;;;;;;5092942;28;20226;-84
2021/05/24 06:57:03;;;;;;;10.30;2.70;;;;;;;;;;5093547;28;20272;-84
2021/05/24 06:59:31;;;;;;;8.85;2.30;;;;;;;;;;5092743;28;20293;-81
2021/05/24 07:01:58;;;;;;;12.52;2.45;;;;;;;;;;5092660;28;20230;-81
2021/05/24 07:04:25;;;;;;;9.73;2.22;;;;;;;;;;5092672;28;20213;-80
2021/05/24 07:06:52;;;;;;;7.35;2.40;;;;;;;;;;5092458;28;20218;-82
2021/05/24 07:09:18;;;;;;;10.32;2.60;;;;;;;;;;5092642;28;20683;-81
2021/05/24 07:11:53;;;;;;;10.02;2.42;;;;;;;;;;5093128;28;20294;-80
2021/05/24 07:14:20;;;;;;;8.30;2.40;;;;;;;;;;5092051;28;20399;-81
2021/05/24 07:16:49;;;;;;;10.55;2.50;;;;;;;;;;5092280;28;20222;-81
2021/05/24 07:19:22;;;;;;;11.48;2.40;;;;;;;;;;5091938;28;20285;-80
2021/05/24 07:21:48;;;;;;;9.15;2.53;;;;;;;;;;5091793;28;20281;-81
2021/05/24 07:24:15;;;;;;;12.63;2.60;;;;;;;;;;5091274;28;20205;-81
2021/05/24 07:26:42;;;;;;;12.33;2.70;;;;;;;;;;5091739;28;20229;-81
2021/05/24 07:29:09;;;;;;;10.97;2.30;;;;;;;;;;5091756;28;20730;-81
2021/05/24 07:31:35;;;;;;;9.63;2.50;;;;;;;;;;5092302;28;20259;-79
2021/05/24 07:34:03;;;;;;;10.10;2.30;;;;;;;;;;5092114;28;20251;-78
2021/05/24 07:36:30;;;;;;;7.93;2.17;;;;;;;;;;5091762;28;20209;-78
2021/05/24 07:38:57;;;;;;;6.20;1.70;;;;;;;;;;5091131;28;20199;-77
2021/05/24 07:41:23;;;;;;;5.33;1.40;;;;;;;;;;5091430;28;20289;-78
2021/05/24 07:43:50;;;;;;;6.37;1.50;;;;;;;;;;5092389;28;20617;-78
2021/05/24 07:46:17;;;;;;;4.70;1.20;;;;;;;;;;5092180;28;20265;-79
2021/05/24 07:48:44;;;;;;;5.50;1.37;;;;;;;;;;5091165;28;20240;-80
2021/05/24 07:51:11;;;;;;;8.67;1.50;;;;;;;;;;5091491;28;20210;-81
2021/05/24 07:53:38;;;;;;;4.73;1.40;;;;;;;;;;5090214;28;20232;-78
2021/05/24 07:56:08;;;;;;;6.03;1.27;;;;;;;;;;5090906;28;20193;-80
2021/05/24 07:58:34;;;;;;;7.27;2.00;;;;;;;;;;5091354;28;20194;-80
2021/05/24 08:01:03;;;;;;;8.37;2.00;;;;;;;;;;5091679;28;20198;-83
2021/05/24 08:03:31;;;;;;;8.13;1.73;;;;;;;;;;5099278;28;20722;-82
2021/05/24 08:05:57;;;;;;;5.53;1.63;;;;;;;;;;5084915;28;20225;-82
2021/05/24 08:08:30;;;;;;;6.33;1.60;;;;;;;;;;5091198;28;20244;-83
2021/05/24 08:10:57;;;;;;;6.63;1.73;;;;;;;;;;5101506;28;20255;-80
2021/05/24 08:13:26;;;;;;;4.07;1.20;;;;;;;;;;5090774;28;20259;-79
2021/05/24 08:16:00;;;;;;;7.43;2.50;;;;;;;;;;5091417;28;20201;-81
2021/05/24 08:18:27;;;;;;;4.87;1.70;;;;;;;;;;5093370;28;20240;-81
2021/05/24 08:20:54;;;;;;;6.00;1.40;;;;;;;;;;5090831;28;20197;-84
2021/05/24 08:23:20;;;;;;;6.13;1.23;;;;;;;;;;5091171;28;20243;-82
2021/05/24 08:25:48;;;;;;;4.60;1.20;;;;;;;;;;5090921;28;20567;-80
2021/05/24 08:28:19;;;;;;;3.50;1.30;;;;;;;;;;5090101;28;20223;-81
2021/05/24 08:30:46;;;;;;;3.87;0.97;;;;;;;;;;5083105;28;20778;-82
2021/05/24 08:33:13;;;;;;;3.93;1.10;;;;;;;;;;5083227;28;20297;-81
2021/05/24 08:35:54;;;;;;;5.57;1.60;;;;;;;;;;5084405;28;20521;-82
2021/05/24 08:38:20;;;;;;;3.73;1.10;;;;;;;;;;5081043;28;20206;-79
2021/05/24 08:40:48;;;;;;;2.77;1.00;;;;;;;;;;5084407;28;20207;-82
2021/05/24 08:43:21;;;;;;;5.33;1.23;;;;;;;;;;5086498;28;20282;-82
2021/05/24 08:45:48;;;;;;;2.23;0.80;;;;;;;;;;5084006;28;20237;-82
2021/05/24 08:48:14;;;;;;;3.60;0.97;;;;;;;;;;5090000;28;20679;-82
2021/05/24 08:50:41;;;;;;;3.83;1.03;;;;;;;;;;5089382;28;20279;-82
2021/05/24 08:53:09;;;;;;;2.07;0.80;;;;;;;;;;5092685;28;20229;-82
2021/05/24 08:55:36;;;;;;;2.00;0.73;;;;;;;;;;5092804;28;20255;-82
2021/05/24 08:58:03;;;;;;;2.95;0.90;;;;;;;;;;5091208;28;20275;-83
2021/05/24 09:00:31;;;;;;;3.03;1.27;;;;;;;;;;5089274;28;20201;-82
2021/05/24 09:02:59;;;;;;;3.47;1.00;;;;;;;;;;5090590;28;20294;-82
2021/05/24 09:05:30;;;;;;;3.67;1.40;;;;;;;;;;5089587;28;20273;-83
2021/05/24 09:07:58;;;;;;;3.17;0.80;;;;;;;;;;5094252;28;20198;-82
2021/05/24 09:10:25;;;;;;;3.28;1.10;;;;;;;;;;5089696;28;20306;-81
2021/05/24 09:12:52;;;;;;;2.40;1.20;;;;;;;;;;5093591;28;20195;-81
2021/05/24 09:15:25;;;;;;;3.22;1.00;;;;;;;;;;5094909;28;20207;-80
2021/05/24 09:17:54;;;;;;;2.30;0.95;;;;;;;;;;5083641;28;20577;-82
2021/05/24 09:20:32;;;;;;;3.83;1.10;;;;;;;;;;5093504;28;20248;-81
2021/05/24 09:23:16;;;;;;;3.00;1.00;;;;;;;;;;5094087;28;20719;-82
2021/05/24 09:25:49;;;;;;;1.85;0.68;;;;;;;;;;5094407;28;20206;-82
2021/05/24 09:28:30;;;;;;;4.30;0.98;;;;;;;;;;5093171;28;20702;-81
2021/05/24 09:30:59;;;;;;;5.00;0.93;;;;;;;;;;5089165;28;20194;-82
2021/05/24 09:33:26;;;;;;;5.35;1.00;;;;;;;;;;5095358;28;20277;-82
2021/05/24 09:35:53;;;;;;;4.05;1.00;;;;;;;;;;5092702;28;20231;-82
2021/05/24 09:38:25;;;;;;;3.72;1.10;;;;;;;;;;5093102;28;20251;-82
2021/05/24 09:40:53;;;;;;;6.50;1.42;;;;;;;;;;5096137;28;20194;-81
2021/05/24 09:43:19;;;;;;;4.32;0.93;;;;;;;;;;5094644;28;20243;-82
2021/05/24 09:45:48;;;;;;;4.47;1.10;;;;;;;;;;5093580;28;20241;-82
2021/05/24 09:48:16;;;;;;;6.18;1.63;;;;;;;;;;5089338;28;20280;-82
2021/05/24 09:50:43;;;;;;;6.05;3.25;;;;;;;;;;5096901;28;20198;-82
2021/05/24 09:53:09;;;;;;;6.70;2.83;;;;;;;;;;5091865;28;20198;-82
2021/05/24 09:55:39;;;;;;;7.22;3.28;;;;;;;;;;5098374;28;20286;-82
2021/05/24 09:58:07;;;;;;;4.72;1.10;;;;;;;;;;5092231;28;20202;-83
2021/05/24 10:00:40;;;;;;;6.65;1.42;;;;;;;;;;5093568;28;20194;-82
2021/05/24 10:03:17;;;;;;;6.15;1.40;;;;;;;;;;5093118;28;20198;-82
2021/05/24 10:05:45;;;;;;;9.15;3.10;;;;;;;;;;5093785;28;20202;-81
2021/05/24 10:08:12;;;;;;;5.23;1.30;;;;;;;;;;5092177;28;20198;-81
2021/05/24 10:10:46;;;;;;;3.03;1.23;;;;;;;;;;5092880;28;20198;-80
2021/05/24 10:13:13;;;;;;;5.57;1.20;;;;;;;;;;5091853;28;20238;-82
2021/05/24 10:15:41;;;;;;;6.77;2.03;;;;;;;;;;5105072;28;20198;-78
2021/05/24 10:18:08;;;;;;;6.40;3.23;;;;;;;;;;5093763;28;20202;-78
2021/05/24 10:20:36;;;;;;;9.90;5.30;;;;;;;;;;5093935;28;20261;-78
2021/05/24 10:23:03;;;;;;;5.60;2.00;;;;;;;;;;5106885;28;20233;-78
2021/05/24 10:25:30;;;;;;;5.50;1.53;;;;;;;;;;5092902;28;20220;-79
2021/05/24 10:27:59;;;;;;;4.57;1.20;;;;;;;;;;5092517;28;20205;-80
2021/05/24 10:30:26;;;;;;;7.33;1.90;;;;;;;;;;5098056;28;20669;-78
2021/05/24 10:32:53;;;;;;;6.63;1.90;;;;;;;;;;5092593;28;20202;-79
2021/05/24 10:35:31;;;;;;;14.30;8.60;;;;;;;;;;5092754;28;20190;-77
2021/05/24 10:38:02;;;;;;;6.20;3.43;;;;;;;;;;5095998;28;20195;-78
2021/05/24 10:40:29;;;;;;;10.30;2.20;;;;;;;;;;5092455;28;20294;-79
2021/05/24 10:43:11;;;;;;;5.20;1.93;;;;;;;;;;5092566;28;20225;-79
2021/05/24 10:45:37;;;;;;;4.68;2.42;;;;;;;;;;5091985;28;20256;-79
2021/05/24 10:48:05;;;;;;;6.50;1.80;;;;;;;;;;5091334;28;20298;-78
2021/05/24 10:50:33;;;;;;;6.00;1.50;;;;;;;;;;5092385;28;20194;-81
2021/05/24 10:53:01;;;;;;;6.53;1.48;;;;;;;;;;5084023;28;20195;-78
2021/05/24 10:55:39;;;;;;;3.78;1.40;;;;;;;;;;5084397;28;20198;-78
2021/05/24 10:58:06;;;;;;;3.53;1.27;;;;;;;;;;5092425;28;20234;-79
2021/05/24 11:00:49;;;;;;;4.03;1.33;;;;;;;;;;5092932;28;20241;-79
2021/05/24 11:03:15;;;;;;;5.80;1.30;;;;;;;;;;5092609;28;20255;-79
2021/05/24 11:05:42;;;;;;;4.07;1.60;;;;;;;;;;5092641;28;20222;-79
2021/05/24 11:08:10;;;;;;;6.13;1.55;;;;;;;;;;5091816;28;20200;-79
2021/05/24 11:10:46;;;;;;;7.15;1.50;;;;;;;;;;5092206;28;20205;-79
2021/05/24 11:13:26;;;;;;;7.18;1.52;;;;;;;;;;5088273;28;20233;-79
2021/05/24 11:15:53;;;;;;;3.20;0.73;;;;;;;;;;5091459;28;20711;-79
2021/05/24 11:18:28;;;;;;;2.97;0.77;;;;;;;;;;5091906;28;20910;-79
2021/05/24 11:20:58;;;;;;;5.03;1.00;;;;;;;;;;5092103;28;20284;-79
2021/05/24 11:23:33;;;;;;;4.40;1.50;;;;;;;;;;5092873;28;20213;-78
2021/05/24 11:26:28;;;;;;;7.90;4.00;;;;;;;;;;5090948;28;20673;-79
2021/05/24 11:28:58;;;;;;;3.07;1.83;;;;;;;;;;5091341;28;20198;-78
2021/05/24 11:31:25;;;;;;;4.87;1.90;;;;;;;;;;5081747;28;20201;-78
2021/05/24 11:33:53;;;;;;;6.20;3.50;;;;;;;;;;5086803;28;20666;-79
2021/05/24 11:36:21;;;;;;;6.60;3.03;;;;;;;;;;5080671;28;20195;-79
2021/05/24 11:39:03;;;;;;;3.43;1.17;;;;;;;;;;5079277;28;20745;-79
2021/05/24 11:41:31;;;;;;;3.77;1.50;;;;;;;;;;5085660;28;20626;-79
2021/05/24 11:43:59;;;;;;;4.27;1.27;;;;;;;;;;5087759;28;20199;-79
2021/05/24 11:46:26;;;;;;;3.83;1.40;;;;;;;;;;5089873;28;20275;-79
2021/05/24 11:48:54;;;;;;;5.07;1.47;;;;;;;;;;5090734;28;20244;-78
2021/05/24 11:51:33;;;;;;;4.13;1.33;;;;;;;;;;5081491;28;20845;-79
2021/05/24 11:54:00;;;;;;;4.20;1.87;;;;;;;;;;5090219;28;20194;-79
2021/05/24 11:56:36;;;;;;;6.37;1.37;;;;;;;;;;5089778;28;20647;-79
2021/05/24 11:59:04;;;;;;;5.40;1.40;;;;;;;;;;5090977;28;20204;-79
2021/05/24 12:01:31;;;;;;;6.77;1.70;;;;;;;;;;5086392;28;20256;-78
2021/05/24 12:03:58;;;;;;;5.07;1.70;;;;;;;;;;5084954;28;20223;-79
2021/05/24 12:06:25;;;;;;;4.67;1.80;;;;;;;;;;5084731;28;20249;-79
2021/05/24 12:08:52;;;;;;;6.13;1.40;;;;;;;;;;5081337;28;20190;-79
2021/05/24 12:11:19;;;;;;;6.57;1.80;;;;;;;;;;5088737;28;20244;-78
2021/05/24 12:13:56;;;;;;;4.87;1.63;;;;;;;;;;5087191;28;20329;-79
2021/05/24 12:16:23;;;;;;;3.00;1.10;;;;;;;;;;5088631;28;20221;-78
2021/05/24 12:18:50;;;;;;;1.47;0.60;;;;;;;;;;5088797;28;20689;-79
2021/05/24 12:21:30;;;;;;;0.70;0.43;;;;;;;;;;5086544;28;20686;-79
2021/05/24 12:23:58;;;;;;;2.00;1.30;;;;;;;;;;5088842;28;20205;-79
2021/05/24 12:26:25;;;;;;;1.13;0.47;;;;;;;;;;5090475;28;20249;-78
2021/05/24 12:28:52;;;;;;;0.87;0.30;;;;;;;;;;5093419;28;20523;-79
2021/05/24 12:31:19;;;;;;;1.73;0.70;;;;;;;;;;5095432;28;20233;-79
2021/05/24 12:33:47;;;;;;;1.50;0.57;;;;;;;;;;5094565;28;20194;-78
2021/05/24 12:36:17;;;;;;;1.73;0.50;;;;;;;;;;5093886;28;20275;-78
2021/05/24 12:38:45;;;;;;;3.47;1.20;;;;;;;;;;5094137;28;20201;-79
2021/05/24 12:41:14;;;;;;;3.27;0.93;;;;;;;;;;5092951;28;20212;-79
2021/05/24 12:43:53;;;;;;;1.37;0.80;;;;;;;;;;5091964;28;20681;-79
2021/05/24 12:46:21;;;;;;;1.90;0.57;;;;;;;;;;5092332;28;20312;-79
2021/05/24 12:48:51;;;;;;;1.97;0.77;;;;;;;;;;5087398;28;20245;-79
2021/05/24 12:51:19;;;;;;;2.67;0.63;;;;;;;;;;5092821;28;20285;-79
2021/05/24 12:53:52;;;;;;;3.20;0.83;;;;;;;;;;5094691;28;20525;-79
2021/05/24 12:56:18;;;;;;;1.40;0.77;;;;;;;;;;5093997;28;20217;-79
2021/05/24 12:58:45;;;;;;;2.27;0.70;;;;;;;;;;5094285;28;20289;-79
2021/05/24 13:01:12;;;;;;;5.83;0.80;;;;;;;;;;5093977;28;20207;-79
2021/05/24 13:03:44;;;;;;;1.33;0.57;;;;;;;;;;5094527;28;20195;-80
2021/05/24 13:06:11;;;;;;;2.03;0.50;;;;;;;;;;5092073;28;20283;-80
2021/05/24 13:08:52;;;;;;;3.27;0.80;;;;;;;;;;5093882;28;20572;-79
2021/05/24 13:11:22;;;;;;;2.27;0.80;;;;;;;;;;5093702;28;20197;-80
2021/05/24 13:13:59;;;;;;;2.67;0.90;;;;;;;;;;5094777;28;20241;-79
2021/05/24 13:16:29;;;;;;;3.20;1.00;;;;;;;;;;5094090;28;20218;-80
2021/05/24 13:22:07;;;;;;;2.90;0.90;;;;;;;;;;5083239;28;20283;-80
2021/05/24 13:24:52;;;;;;;3.63;1.00;;;;;;;;;;5094141;28;20695;-79
2021/05/24 13:27:44;;;;;;;2.97;0.60;;;;;;;;;;5092772;28;20697;-79
2021/05/24 13:30:13;;;;;;;2.10;0.57;;;;;;;;;;5093605;28;20214;-79
2021/05/24 13:32:40;;;;;;;1.23;0.40;;;;;;;;;;5093703;28;20579;-79
2021/05/24 13:38:10;;;;;;;1.70;0.63;;;;;;;;;;5133359;27;20523;-78
2021/05/24 13:40:38;;;;;;;2.77;0.90;;;;;;;;;;5129051;28;20594;-77
2021/05/24 13:43:04;;;;;;;1.73;0.60;;;;;;;;;;5129424;28;20197;-79
2021/05/24 13:45:31;;;;;;;2.50;0.80;;;;;;;;;;5131766;27;20231;-79
2021/05/24 13:47:58;;;;;;;3.80;0.80;;;;;;;;;;5129123;28;20284;-79
2021/05/24 13:50:25;;;;;;;2.13;0.97;;;;;;;;;;5129256;28;20296;-79
2021/05/24 13:52:52;;;;;;;1.20;0.60;;;;;;;;;;5128250;28;20229;-79
2021/05/24 13:55:19;;;;;;;1.20;0.50;;;;;;;;;;5127681;28;20224;-78
2021/05/24 13:57:46;;;;;;;1.43;0.40;;;;;;;;;;5128117;28;20651;-79
2021/05/24 14:00:14;;;;;;;1.30;0.40;;;;;;;;;;5128292;28;20200;-79
2021/05/24 14:02:41;;;;;;;1.53;0.50;;;;;;;;;;5127610;28;20224;-79
2021/05/24 14:05:08;;;;;;;2.90;0.70;;;;;;;;;;5128134;28;20618;-79
2021/05/24 14:07:35;;;;;;;1.47;0.67;;;;;;;;;;5127978;28;20246;-78
2021/05/24 14:10:01;;;;;;;2.27;0.87;;;;;;;;;;5128284;28;20193;-79
2021/05/24 14:12:29;;;;;;;3.40;0.80;;;;;;;;;;5128460;28;20656;-78
2021/05/24 14:14:56;;;;;;;2.10;0.90;;;;;;;;;;5127562;28;20288;-79
2021/05/24 14:17:23;;;;;;;2.10;0.90;;;;;;;;;;5128107;28;20217;-79
2021/05/24 14:19:49;;;;;;;2.10;1.03;;;;;;;;;;5128276;27;20707;-79
2021/05/24 14:22:16;;;;;;;3.63;1.10;;;;;;;;;;5127545;28;20245;-79
2021/05/24 14:24:43;;;;;;;2.67;0.90;;;;;;;;;;5127783;28;20285;-79
2021/05/24 14:27:10;;;;;;;4.00;1.07;;;;;;;;;;5112639;28;20252;-79
2021/05/24 14:29:37;;;;;;;2.90;0.90;;;;;;;;;;5095234;28;20225;-79
2021/05/24 14:32:04;;;;;;;3.53;1.10;;;;;;;;;;5106072;28;20616;-78
2021/05/24 14:34:32;;;;;;;4.90;1.30;;;;;;;;;;5095446;28;20279;-77
2021/05/24 14:36:59;;;;;;;2.80;1.00;;;;;;;;;;5088946;28;20242;-78
2021/05/24 14:39:27;;;;;;;3.13;1.00;;;;;;;;;;5112680;28;20198;-78
2021/05/24 14:41:57;;;;;;;5.73;1.70;;;;;;;;;;5100289;28;20212;-78
2021/05/24 14:44:23;;;;;;;3.37;1.00;;;;;;;;;;5101343;28;20189;-78
2021/05/24 14:46:51;;;;;;;2.80;1.00;;;;;;;;;;5103396;28;20203;-77
2021/05/24 14:49:18;;;;;;;2.77;0.80;;;;;;;;;;5080865;28;20210;-78
2021/05/24 14:51:52;;;;;;;4.93;0.90;;;;;;;;;;5092623;28;20205;-78
2021/05/24 14:57:33;;;;;;;3.27;0.93;;;;;;;;;;5080179;28;20329;-79
2021/05/24 15:06:09;;;;;;;3.13;0.97;;;;;;;;;;4990754;28;20190;-80